Time;durP1;ratioP1;P1;durP2;ratioP2;P2;SDS_P1;SDS_P2;PMS_P1;PMS_P2;Temp;Humidity;BMP_temperature;BMP_pressure;BME280_temperature;BME280_humidity;BME280_pressure;Samples;Min_cycle;Max_cycle;Signal;HPM_P1;HPM_P2
2023/12/31 00:00:34;;;;;;;15.30;6.50;;;8.10;99.90;;;;;;5105901;28;20123;-57
2023/12/31 00:03:00;;;;;;;13.43;5.70;;;8.10;99.90;;;;;;5087751;28;20035;-57
2023/12/31 00:05:26;;;;;;;17.10;6.63;;;8.00;99.90;;;;;;5087623;28;20028;-57
2023/12/31 00:07:52;;;;;;;16.20;6.45;;;8.00;99.90;;;;;;5087845;28;20035;-57
2023/12/31 00:10:17;;;;;;;11.52;5.50;;;8.00;99.90;;;;;;5087631;28;20379;-57
2023/12/31 00:12:47;;;;;;;13.18;5.82;;;8.00;99.90;;;;;;5105510;28;20028;-57
2023/12/31 00:15:13;;;;;;;17.08;5.35;;;7.90;99.90;;;;;;5089230;28;20062;-57
2023/12/31 00:17:38;;;;;;;17.02;6.30;;;7.90;99.90;;;;;;5109461;28;20020;-57
2023/12/31 00:20:04;;;;;;;12.55;5.80;;;7.90;99.90;;;;;;5109478;28;20024;-57
2023/12/31 00:22:30;;;;;;;17.48;6.00;;;7.90;99.90;;;;;;5109284;28;20101;-56
2023/12/31 00:24:55;;;;;;;13.55;5.38;;;7.90;99.90;;;;;;5091179;28;20036;-57
2023/12/31 00:27:21;;;;;;;16.48;6.00;;;7.90;99.90;;;;;;5109460;28;20099;-57
2023/12/31 00:29:47;;;;;;;12.55;5.70;;;7.90;99.90;;;;;;5109345;28;20036;-57
2023/12/31 00:32:14;;;;;;;10.50;5.78;;;7.80;99.90;;;;;;5090816;28;20039;-57
2023/12/31 00:34:39;;;;;;;14.55;5.65;;;7.80;99.90;;;;;;5090428;28;20038;-57
2023/12/31 00:37:05;;;;;;;13.40;6.05;;;7.80;99.90;;;;;;5091131;28;20024;-57
2023/12/31 00:39:30;;;;;;;15.23;6.15;;;7.80;99.90;;;;;;5074189;28;20388;-57
2023/12/31 00:41:56;;;;;;;10.05;4.55;;;7.80;99.90;;;;;;5109052;28;20028;-57
2023/12/31 00:44:22;;;;;;;12.50;5.13;;;7.80;99.90;;;;;;5090999;28;20043;-57
2023/12/31 00:46:47;;;;;;;13.93;5.68;;;7.80;99.90;;;;;;5073951;28;20024;-57
2023/12/31 00:49:13;;;;;;;13.52;5.45;;;7.80;99.90;;;;;;5108990;28;20055;-57
2023/12/31 00:51:38;;;;;;;13.15;5.82;;;7.70;99.90;;;;;;5090527;28;20028;-57
2023/12/31 00:54:04;;;;;;;11.65;5.38;;;7.70;99.90;;;;;;5090624;28;20046;-57
2023/12/31 00:56:30;;;;;;;14.35;5.85;;;7.70;99.90;;;;;;5108590;28;20081;-57
2023/12/31 00:58:55;;;;;;;10.05;4.45;;;7.70;99.90;;;;;;5108874;28;20495;-57
2023/12/31 01:01:21;;;;;;;9.13;4.82;;;7.70;99.90;;;;;;5090461;28;20028;-57
2023/12/31 01:03:47;;;;;;;12.80;4.97;;;7.70;99.90;;;;;;5090352;28;20024;-57
2023/12/31 01:06:12;;;;;;;11.60;4.95;;;7.60;99.90;;;;;;5108579;28;20028;-57
2023/12/31 01:08:38;;;;;;;13.10;5.72;;;7.70;99.90;;;;;;5090478;28;20024;-57
2023/12/31 01:11:04;;;;;;;11.05;4.53;;;7.60;99.90;;;;;;5108520;28;20042;-57
2023/12/31 01:13:30;;;;;;;13.27;5.10;;;7.60;99.90;;;;;;5073459;28;20035;-57
2023/12/31 01:15:56;;;;;;;16.27;5.30;;;7.60;99.90;;;;;;5090507;28;20052;-57
2023/12/31 01:18:21;;;;;;;13.25;5.53;;;7.60;99.90;;;;;;5108366;28;20035;-57
2023/12/31 01:20:47;;;;;;;11.20;5.05;;;7.60;99.90;;;;;;5090442;28;20429;-57
2023/12/31 01:23:12;;;;;;;10.48;4.68;;;7.60;99.90;;;;;;5089919;28;20032;-57
2023/12/31 01:25:39;;;;;;;12.25;5.30;;;7.50;99.90;;;;;;5073442;28;20017;-57
2023/12/31 01:28:05;;;;;;;12.15;4.45;;;7.50;99.90;;;;;;5107172;28;20024;-57
2023/12/31 01:30:30;;;;;;;9.35;4.78;;;7.50;99.90;;;;;;5108134;28;20104;-57
2023/12/31 01:32:56;;;;;;;10.40;4.65;;;7.50;99.90;;;;;;5089937;28;20257;-57
2023/12/31 01:35:22;;;;;;;9.43;4.88;;;7.50;99.90;;;;;;5089710;28;20551;-57
2023/12/31 01:37:47;;;;;;;8.48;4.72;;;7.50;99.90;;;;;;5107696;28;20040;-57
2023/12/31 01:40:13;;;;;;;11.93;4.70;;;7.50;99.90;;;;;;5089851;28;20036;-57
2023/12/31 01:42:38;;;;;;;10.68;4.57;;;7.50;99.90;;;;;;5090583;28;20028;-57
2023/12/31 01:45:04;;;;;;;11.98;4.60;;;7.40;99.90;;;;;;5089859;28;20028;-57
2023/12/31 01:47:31;;;;;;;10.77;5.15;;;7.50;99.90;;;;;;5107789;28;20032;-57
2023/12/31 01:49:56;;;;;;;11.80;5.18;;;7.40;99.90;;;;;;5089626;28;20031;-57
2023/12/31 01:52:24;;;;;;;9.57;4.88;;;7.40;99.90;;;;;;5089673;28;20024;-57
2023/12/31 01:54:51;;;;;;;9.35;4.93;;;7.40;99.90;;;;;;5089950;28;20088;-57
2023/12/31 01:57:17;;;;;;;13.13;4.65;;;7.40;99.90;;;;;;5072641;28;20095;-57
2023/12/31 01:59:43;;;;;;;9.60;4.53;;;7.40;99.90;;;;;;5089467;28;20038;-57
2023/12/31 02:02:08;;;;;;;7.07;4.25;;;7.40;99.90;;;;;;5107352;28;20024;-57
2023/12/31 02:04:34;;;;;;;12.63;5.22;;;7.30;99.90;;;;;;5073042;28;20118;-57
2023/12/31 02:07:00;;;;;;;11.55;4.57;;;7.30;99.90;;;;;;5089473;28;20028;-57
2023/12/31 02:09:26;;;;;;;15.88;5.15;;;7.30;99.90;;;;;;5089381;28;20020;-57
2023/12/31 02:11:52;;;;;;;9.45;4.55;;;7.30;99.90;;;;;;5089370;28;20047;-58
2023/12/31 02:14:17;;;;;;;6.85;4.43;;;7.30;99.90;;;;;;5089253;28;20028;-57
2023/12/31 02:16:43;;;;;;;6.70;4.43;;;7.30;99.90;;;;;;5089166;28;20024;-57
2023/12/31 02:19:09;;;;;;;9.07;4.70;;;7.30;99.90;;;;;;5107197;28;20092;-58
2023/12/31 02:21:34;;;;;;;6.28;4.60;;;7.20;99.90;;;;;;5088996;28;20062;-57
2023/12/31 02:24:00;;;;;;;8.88;4.70;;;7.20;99.90;;;;;;5089004;28;20020;-57
2023/12/31 02:26:26;;;;;;;7.10;3.75;;;7.20;99.90;;;;;;5088946;28;20039;-57
2023/12/31 02:28:51;;;;;;;7.82;4.07;;;7.20;99.90;;;;;;5088946;28;20073;-57
2023/12/31 02:31:18;;;;;;;7.40;4.45;;;7.20;99.90;;;;;;5107050;28;20032;-57
2023/12/31 02:33:44;;;;;;;6.15;4.30;;;7.20;99.90;;;;;;5106727;28;20486;-56
2023/12/31 02:36:09;;;;;;;7.05;4.72;;;7.10;99.90;;;;;;5106928;28;20025;-57
2023/12/31 02:38:35;;;;;;;9.00;4.03;;;7.10;99.90;;;;;;5106833;28;20066;-57
2023/12/31 02:41:01;;;;;;;11.38;4.50;;;7.10;99.90;;;;;;5088748;28;20031;-57
2023/12/31 02:43:26;;;;;;;7.40;3.88;;;7.10;99.90;;;;;;5088464;28;20020;-57
2023/12/31 02:45:52;;;;;;;8.57;4.90;;;7.10;99.90;;;;;;5088722;28;20102;-57
2023/12/31 02:48:17;;;;;;;6.65;4.15;;;7.10;99.90;;;;;;5088550;28;20024;-57
2023/12/31 02:50:43;;;;;;;7.78;4.13;;;7.30;99.90;;;;;;5106801;28;20497;-57
2023/12/31 02:53:09;;;;;;;5.80;4.03;;;7.10;99.90;;;;;;5071597;28;20035;-57
2023/12/31 02:55:34;;;;;;;5.68;3.60;;;7.10;99.90;;;;;;5088388;28;20032;-57
2023/12/31 02:58:00;;;;;;;8.20;3.53;;;7.00;99.90;;;;;;5088265;28;20460;-57
2023/12/31 03:00:25;;;;;;;7.22;4.05;;;7.00;99.90;;;;;;5106509;28;20028;-57
2023/12/31 03:02:51;;;;;;;6.90;3.97;;;7.00;99.90;;;;;;5106372;28;20028;-57
2023/12/31 03:05:17;;;;;;;7.30;3.92;;;7.00;99.90;;;;;;5088413;28;20028;-57
2023/12/31 03:07:42;;;;;;;6.75;4.07;;;7.00;99.90;;;;;;5088347;28;20579;-57
2023/12/31 03:10:09;;;;;;;8.82;3.88;;;6.90;99.90;;;;;;5088109;28;20025;-57
2023/12/31 03:12:34;;;;;;;9.60;4.40;;;7.00;99.90;;;;;;5088462;28;20491;-57
2023/12/31 03:15:00;;;;;;;7.68;4.00;;;7.00;99.90;;;;;;5106461;28;20072;-57
2023/12/31 03:17:25;;;;;;;8.55;3.90;;;6.90;99.90;;;;;;5106208;28;20020;-57
2023/12/31 03:19:51;;;;;;;11.50;4.70;;;6.90;99.90;;;;;;5106471;28;20023;-57
2023/12/31 03:22:17;;;;;;;6.00;4.25;;;6.90;99.90;;;;;;5087899;28;20047;-57
2023/12/31 03:24:43;;;;;;;8.00;4.63;;;6.90;99.90;;;;;;5106411;28;20054;-57
2023/12/31 03:27:09;;;;;;;6.25;3.67;;;6.90;99.90;;;;;;5088337;28;20074;-57
2023/12/31 03:29:35;;;;;;;7.20;3.97;;;6.90;99.90;;;;;;5088256;28;20025;-57
2023/12/31 03:32:01;;;;;;;5.47;4.05;;;6.90;99.90;;;;;;5088211;28;20091;-57
2023/12/31 03:34:26;;;;;;;7.45;4.15;;;6.80;99.90;;;;;;5087825;28;20036;-57
2023/12/31 03:36:52;;;;;;;6.28;3.70;;;6.80;99.90;;;;;;5106086;28;20123;-57
2023/12/31 03:39:18;;;;;;;6.50;4.00;;;6.80;99.90;;;;;;5071508;28;20077;-57
2023/12/31 03:41:43;;;;;;;6.90;3.95;;;6.80;99.90;;;;;;5088465;28;20036;-57
2023/12/31 03:44:09;;;;;;;6.28;4.25;;;6.80;99.90;;;;;;5106579;28;20024;-57
2023/12/31 03:46:35;;;;;;;8.63;3.70;;;6.80;99.90;;;;;;5088190;28;20028;-57
2023/12/31 03:49:00;;;;;;;6.15;3.60;;;6.80;99.90;;;;;;5106044;28;20028;-57
2023/12/31 03:51:26;;;;;;;5.72;3.75;;;6.80;99.90;;;;;;5091312;28;20320;-57
2023/12/31 03:53:52;;;;;;;7.07;4.10;;;6.80;99.90;;;;;;5110066;28;20039;-57
2023/12/31 03:56:17;;;;;;;5.22;4.13;;;6.80;99.90;;;;;;5091993;28;20024;-57
2023/12/31 03:58:43;;;;;;;5.45;3.42;;;6.70;99.90;;;;;;5091707;28;20024;-57
2023/12/31 04:01:08;;;;;;;5.93;3.85;;;6.70;99.90;;;;;;5091900;28;20035;-57
2023/12/31 04:03:34;;;;;;;8.02;3.63;;;6.70;99.90;;;;;;5091054;28;20036;-58
2023/12/31 04:06:00;;;;;;;6.90;3.72;;;6.70;99.90;;;;;;5109743;28;20047;-57
2023/12/31 04:08:25;;;;;;;4.30;3.50;;;6.70;99.90;;;;;;5109773;28;20044;-57
2023/12/31 04:10:51;;;;;;;7.22;3.70;;;6.70;99.90;;;;;;5109867;28;20028;-57
2023/12/31 04:13:19;;;;;;;6.05;4.18;;;6.60;99.90;;;;;;5109516;28;20051;-57
2023/12/31 04:15:45;;;;;;;7.13;3.65;;;6.70;99.90;;;;;;5109569;28;20157;-57
2023/12/31 04:18:10;;;;;;;6.00;3.67;;;6.70;99.90;;;;;;5109585;28;20032;-57
2023/12/31 04:20:36;;;;;;;5.10;3.72;;;6.60;99.90;;;;;;5091486;28;20028;-57
2023/12/31 04:23:03;;;;;;;6.28;3.55;;;6.70;99.90;;;;;;5091226;28;20101;-57
2023/12/31 04:25:28;;;;;;;5.85;3.53;;;6.60;99.90;;;;;;5091511;28;20060;-57
2023/12/31 04:27:54;;;;;;;5.45;3.58;;;6.60;99.90;;;;;;5109321;28;20036;-57
2023/12/31 04:30:19;;;;;;;6.00;3.63;;;6.60;99.90;;;;;;5109417;28;20021;-57
2023/12/31 04:32:45;;;;;;;7.20;3.55;;;6.60;99.90;;;;;;5109358;28;20020;-57
2023/12/31 04:35:11;;;;;;;4.13;3.13;;;6.60;99.90;;;;;;5090746;28;20044;-57
2023/12/31 04:37:37;;;;;;;5.60;3.92;;;6.50;99.90;;;;;;5109060;28;20028;-57
2023/12/31 04:40:03;;;;;;;8.43;3.20;;;6.50;99.90;;;;;;5109069;28;20496;-57
2023/12/31 04:42:29;;;;;;;5.07;3.60;;;6.50;99.90;;;;;;5074415;28;20104;-56
2023/12/31 04:44:54;;;;;;;5.70;3.55;;;6.60;99.90;;;;;;5109202;28;20028;-57
2023/12/31 04:47:20;;;;;;;5.38;3.42;;;6.50;99.90;;;;;;5091060;28;20016;-57
2023/12/31 04:49:46;;;;;;;4.53;3.28;;;6.50;99.90;;;;;;5090668;28;20027;-57
2023/12/31 04:52:11;;;;;;;4.25;3.30;;;6.50;99.90;;;;;;5074049;28;20024;-57
2023/12/31 04:54:38;;;;;;;4.57;3.50;;;6.50;99.90;;;;;;5090752;28;20028;-57
2023/12/31 04:57:04;;;;;;;6.15;3.38;;;6.50;99.90;;;;;;5108855;28;20123;-57
2023/12/31 04:59:29;;;;;;;5.15;3.35;;;6.50;99.90;;;;;;5090669;28;20035;-57
2023/12/31 05:01:55;;;;;;;4.90;3.50;;;6.40;99.90;;;;;;5072319;28;20143;-57
2023/12/31 05:04:20;;;;;;;7.28;3.95;;;6.50;99.90;;;;;;5090579;28;20049;-57
2023/12/31 05:06:46;;;;;;;6.47;3.28;;;6.40;99.90;;;;;;5108747;28;20024;-57
2023/12/31 05:09:12;;;;;;;4.53;3.40;;;6.40;99.90;;;;;;5108749;28;20089;-57
2023/12/31 05:11:37;;;;;;;4.70;3.50;;;6.40;99.90;;;;;;5090310;28;20024;-57
2023/12/31 05:14:03;;;;;;;4.45;3.30;;;6.40;99.90;;;;;;5090492;28;20028;-57
2023/12/31 05:16:32;;;;;;;6.03;4.00;;;6.40;99.90;;;;;;5090230;28;20025;-57
2023/12/31 05:18:58;;;;;;;5.40;3.65;;;6.40;99.90;;;;;;5090716;28;20030;-57
2023/12/31 05:21:23;;;;;;;4.82;3.60;;;6.40;99.90;;;;;;5090286;28;20481;-57
2023/12/31 05:23:49;;;;;;;4.85;3.33;;;6.30;99.90;;;;;;5108356;28;20102;-57
2023/12/31 05:26:15;;;;;;;4.68;3.67;;;6.30;99.90;;;;;;5090252;28;20020;-57
2023/12/31 05:28:40;;;;;;;4.40;3.60;;;6.30;99.90;;;;;;5108278;28;20024;-57
2023/12/31 05:31:06;;;;;;;4.38;3.40;;;6.30;99.90;;;;;;5090288;28;20032;-57
2023/12/31 05:33:31;;;;;;;7.13;3.65;;;6.30;99.90;;;;;;5090116;28;20032;-57
2023/12/31 05:35:57;;;;;;;4.45;3.33;;;6.30;99.90;;;;;;5089805;28;20065;-57
2023/12/31 05:38:23;;;;;;;5.00;3.38;;;6.30;99.90;;;;;;5089847;28;20490;-57
2023/12/31 05:40:48;;;;;;;5.13;3.42;;;6.30;99.90;;;;;;5073114;28;20024;-57
2023/12/31 05:43:14;;;;;;;4.45;3.20;;;6.20;99.90;;;;;;5090243;28;20032;-57
2023/12/31 05:45:39;;;;;;;4.40;3.70;;;6.20;99.90;;;;;;5089722;28;20095;-57
2023/12/31 05:48:05;;;;;;;5.53;3.72;;;6.20;99.90;;;;;;5089659;28;20060;-57
2023/12/31 05:50:31;;;;;;;5.60;3.70;;;6.20;99.90;;;;;;5107644;28;20054;-57
2023/12/31 05:52:56;;;;;;;5.97;3.72;;;6.20;99.90;;;;;;5089415;28;20089;-57
2023/12/31 05:55:23;;;;;;;5.55;3.80;;;6.20;99.90;;;;;;5089490;28;20028;-57
2023/12/31 05:57:48;;;;;;;4.60;3.60;;;6.20;99.90;;;;;;5107545;28;20170;-57
2023/12/31 06:00:14;;;;;;;5.38;3.80;;;6.20;99.90;;;;;;5089320;28;20036;-57
2023/12/31 06:02:40;;;;;;;6.47;3.90;;;6.20;99.90;;;;;;5107439;28;20024;-57
2023/12/31 06:05:06;;;;;;;6.07;3.85;;;6.20;99.90;;;;;;5089420;28;20016;-57
2023/12/31 06:07:32;;;;;;;6.13;3.92;;;6.10;99.90;;;;;;5107228;28;20020;-57
2023/12/31 06:09:58;;;;;;;6.95;4.03;;;6.20;99.90;;;;;;5107304;28;20022;-57
2023/12/31 06:12:23;;;;;;;5.72;3.83;;;6.10;99.90;;;;;;5088809;28;20029;-57
2023/12/31 06:14:49;;;;;;;5.95;3.97;;;6.20;99.90;;;;;;5107413;28;20058;-57
2023/12/31 06:17:15;;;;;;;5.03;3.95;;;6.10;99.90;;;;;;5089271;28;20054;-58
2023/12/31 06:19:40;;;;;;;4.30;3.78;;;6.10;99.90;;;;;;5089095;28;20024;-57
2023/12/31 06:22:06;;;;;;;6.05;4.38;;;6.10;99.90;;;;;;5089079;28;20024;-57
2023/12/31 06:24:32;;;;;;;5.20;3.97;;;6.10;99.90;;;;;;5088867;28;20054;-57
2023/12/31 06:26:57;;;;;;;4.28;3.58;;;6.10;99.90;;;;;;5106960;28;20080;-57
2023/12/31 06:29:23;;;;;;;5.35;3.78;;;6.10;99.90;;;;;;5089006;28;20074;-57
2023/12/31 06:31:48;;;;;;;5.75;3.67;;;6.10;99.90;;;;;;5107090;28;20036;-57
2023/12/31 06:34:14;;;;;;;5.10;3.50;;;6.10;99.90;;;;;;5088767;28;20043;-57
2023/12/31 06:36:40;;;;;;;4.45;3.78;;;6.10;99.90;;;;;;5107043;28;20039;-57
2023/12/31 06:39:07;;;;;;;5.82;4.10;;;6.10;99.90;;;;;;5088657;28;20035;-58
2023/12/31 06:41:33;;;;;;;5.22;4.00;;;6.10;99.90;;;;;;5088970;28;20020;-57
2023/12/31 06:43:59;;;;;;;4.20;3.70;;;6.10;99.90;;;;;;5106962;28;20102;-57
2023/12/31 06:46:25;;;;;;;5.38;3.85;;;6.10;99.90;;;;;;5071904;28;20025;-57
2023/12/31 06:48:51;;;;;;;8.27;3.72;;;6.10;99.90;;;;;;5106733;28;20058;-57
2023/12/31 06:51:16;;;;;;;4.20;3.50;;;6.10;99.90;;;;;;5106548;28;20059;-57
2023/12/31 06:53:42;;;;;;;4.28;3.88;;;6.10;99.90;;;;;;5088274;28;20028;-57
2023/12/31 06:56:08;;;;;;;4.20;3.75;;;6.10;99.90;;;;;;5106534;28;20032;-57
2023/12/31 06:58:34;;;;;;;4.20;3.78;;;6.00;99.90;;;;;;5088490;28;20497;-57
2023/12/31 07:01:00;;;;;;;4.50;3.72;;;6.10;99.90;;;;;;5088419;28;20034;-58
2023/12/31 07:03:26;;;;;;;5.05;3.38;;;6.00;99.90;;;;;;5106411;28;20052;-57
2023/12/31 07:05:51;;;;;;;4.35;3.85;;;6.00;99.90;;;;;;5088562;28;20122;-57
2023/12/31 07:08:17;;;;;;;5.13;4.05;;;6.00;99.90;;;;;;5106409;28;20054;-57
2023/12/31 07:10:42;;;;;;;4.28;3.75;;;6.10;99.90;;;;;;5106393;28;20028;-57
2023/12/31 07:13:08;;;;;;;5.20;4.22;;;6.00;99.90;;;;;;5071687;28;20032;-57
2023/12/31 07:15:34;;;;;;;4.10;3.55;;;6.00;99.90;;;;;;5106550;28;20054;-57
2023/12/31 07:18:00;;;;;;;4.43;3.72;;;6.00;99.90;;;;;;5071396;28;20028;-57
2023/12/31 07:20:26;;;;;;;4.53;3.92;;;6.00;99.90;;;;;;5088177;28;20032;-58
2023/12/31 07:22:53;;;;;;;4.65;3.90;;;6.00;99.90;;;;;;5088065;28;20024;-57
2023/12/31 07:25:25;;;;;;;5.38;3.97;;;6.00;99.90;;;;;;5107586;28;20048;-57
2023/12/31 07:27:51;;;;;;;4.63;3.90;;;6.00;99.90;;;;;;5092894;28;20028;-58
2023/12/31 07:30:17;;;;;;;5.38;3.70;;;6.00;99.90;;;;;;5110612;28;20058;-49
2023/12/31 07:32:42;;;;;;;4.07;3.40;;;6.00;99.90;;;;;;5110140;28;20531;-49
2023/12/31 07:35:08;;;;;;;4.82;3.58;;;6.00;99.90;;;;;;5110143;28;20040;-49
2023/12/31 07:37:33;;;;;;;5.60;3.65;;;6.00;99.90;;;;;;5092100;28;20031;-49
2023/12/31 07:39:59;;;;;;;4.13;3.53;;;6.00;99.90;;;;;;5110144;28;20050;-49
2023/12/31 07:42:25;;;;;;;5.07;4.05;;;6.00;99.90;;;;;;5110218;28;20088;-49
2023/12/31 07:44:50;;;;;;;4.72;4.15;;;6.00;99.90;;;;;;5109147;28;20028;-49
2023/12/31 07:47:16;;;;;;;4.57;3.85;;;6.00;99.90;;;;;;5126174;27;20027;-49
2023/12/31 07:49:41;;;;;;;4.93;3.88;;;6.00;99.90;;;;;;5105722;28;20035;-50
2023/12/31 07:52:07;;;;;;;4.70;4.13;;;6.00;99.90;;;;;;5108514;28;20024;-49
2023/12/31 07:54:32;;;;;;;4.50;3.75;;;6.00;99.90;;;;;;5079843;28;20278;-49
2023/12/31 07:56:59;;;;;;;5.18;4.22;;;6.00;99.90;;;;;;5101969;28;20448;-49
2023/12/31 07:59:24;;;;;;;6.70;3.80;;;6.00;99.90;;;;;;5086941;28;20367;-49
2023/12/31 08:01:50;;;;;;;5.25;4.18;;;6.00;99.90;;;;;;5103030;28;20017;-49
2023/12/31 08:04:16;;;;;;;5.65;3.58;;;6.00;99.90;;;;;;5087262;28;20020;-49
2023/12/31 08:06:41;;;;;;;3.72;3.42;;;5.90;99.90;;;;;;5069149;28;20092;-49
2023/12/31 08:09:07;;;;;;;5.35;3.97;;;5.90;99.90;;;;;;5085886;28;20170;-49
2023/12/31 08:11:32;;;;;;;4.90;4.15;;;6.00;99.90;;;;;;5087106;28;20025;-49
2023/12/31 08:13:58;;;;;;;4.35;3.63;;;5.90;99.90;;;;;;5104600;28;20102;-49
2023/12/31 08:16:24;;;;;;;4.30;3.78;;;6.00;99.90;;;;;;5104890;28;20025;-49
2023/12/31 08:18:49;;;;;;;4.28;3.50;;;6.00;99.90;;;;;;5105066;28;20028;-49
2023/12/31 08:21:15;;;;;;;4.72;4.07;;;5.90;99.90;;;;;;5089214;28;20471;-50
2023/12/31 08:23:40;;;;;;;4.32;3.63;;;6.00;99.90;;;;;;5087978;28;20036;-49
2023/12/31 08:26:06;;;;;;;4.47;3.75;;;6.00;99.90;;;;;;5089244;28;20029;-49
2023/12/31 08:28:31;;;;;;;4.70;4.18;;;6.00;99.90;;;;;;5089128;28;20025;-49
2023/12/31 08:30:57;;;;;;;4.60;4.00;;;6.00;99.90;;;;;;5089148;28;20021;-49
2023/12/31 08:33:23;;;;;;;4.95;3.78;;;6.00;99.90;;;;;;5087826;28;20475;-49
2023/12/31 08:35:48;;;;;;;5.15;3.78;;;6.00;99.90;;;;;;5087199;28;20040;-49
2023/12/31 08:38:14;;;;;;;4.90;3.92;;;6.00;99.90;;;;;;5104481;28;20472;-49
2023/12/31 08:40:39;;;;;;;4.05;3.58;;;6.00;99.90;;;;;;5087521;28;20033;-48
2023/12/31 08:43:05;;;;;;;5.63;4.10;;;6.00;99.90;;;;;;5104538;28;20033;-50
2023/12/31 08:45:32;;;;;;;5.28;4.18;;;6.00;99.90;;;;;;5104302;28;20115;-49
2023/12/31 08:47:58;;;;;;;4.28;3.67;;;6.00;99.90;;;;;;5104091;28;20123;-50
2023/12/31 08:50:24;;;;;;;5.63;3.90;;;6.00;99.90;;;;;;5104340;28;20035;-53
2023/12/31 08:52:49;;;;;;;5.30;3.95;;;6.00;99.90;;;;;;5104132;28;20031;-49
2023/12/31 08:55:16;;;;;;;6.03;3.97;;;6.00;99.90;;;;;;5088665;28;20033;-49
2023/12/31 08:57:44;;;;;;;4.20;3.80;;;6.00;99.90;;;;;;5103819;28;20123;-49
2023/12/31 09:00:11;;;;;;;4.95;4.05;;;6.00;99.90;;;;;;5086935;28;20388;-49
2023/12/31 09:02:36;;;;;;;4.85;4.15;;;6.00;99.90;;;;;;5103820;28;20514;-49
2023/12/31 09:05:02;;;;;;;4.43;3.80;;;6.00;99.90;;;;;;5104218;28;20024;-49
2023/12/31 09:07:28;;;;;;;4.82;4.10;;;6.00;99.90;;;;;;5088148;28;20060;-50
2023/12/31 09:09:53;;;;;;;5.03;3.70;;;6.00;99.90;;;;;;5086747;28;20078;-50
2023/12/31 09:12:19;;;;;;;4.97;4.10;;;6.00;99.90;;;;;;5088027;28;20021;-49
2023/12/31 09:14:44;;;;;;;5.88;4.05;;;6.00;99.90;;;;;;5103677;28;20071;-49
2023/12/31 09:17:11;;;;;;;4.97;3.90;;;6.00;99.90;;;;;;5088162;28;20131;-49
2023/12/31 09:19:37;;;;;;;5.13;3.97;;;6.10;99.90;;;;;;5087869;28;20033;-49
2023/12/31 09:22:04;;;;;;;4.68;3.92;;;6.10;99.90;;;;;;5103523;28;20036;-49
2023/12/31 09:24:31;;;;;;;6.47;4.75;;;6.10;99.90;;;;;;5088025;28;20021;-49
2023/12/31 09:26:56;;;;;;;9.23;4.72;;;6.10;99.90;;;;;;5087855;28;20030;-49
2023/12/31 09:29:23;;;;;;;10.65;4.10;;;6.20;99.90;;;;;;5103285;28;20032;-49
2023/12/31 09:31:49;;;;;;;7.72;4.50;;;6.20;99.90;;;;;;5069688;28;20033;-49
2023/12/31 09:34:15;;;;;;;10.27;4.50;;;6.20;99.90;;;;;;5087126;28;20032;-50
2023/12/31 09:36:40;;;;;;;10.60;3.90;;;6.20;99.90;;;;;;5086193;28;20060;-49
2023/12/31 09:39:06;;;;;;;13.30;5.10;;;6.20;99.90;;;;;;5098672;28;20098;-49
2023/12/31 09:41:31;;;;;;;9.75;4.40;;;6.20;99.90;;;;;;5112326;28;20480;-49
2023/12/31 09:43:57;;;;;;;11.05;4.20;;;6.20;99.90;;;;;;5098165;28;20333;-49
2023/12/31 09:46:23;;;;;;;10.73;4.35;;;6.30;99.90;;;;;;5095820;28;20036;-49
2023/12/31 09:48:49;;;;;;;19.05;4.78;;;6.30;99.90;;;;;;5085197;28;20031;-49
2023/12/31 09:51:19;;;;;;;19.17;5.47;;;6.30;99.90;;;;;;5111029;27;20047;-49
2023/12/31 09:53:45;;;;;;;13.77;6.18;;;6.30;99.90;;;;;;5134459;27;20027;-49
2023/12/31 09:56:15;;;;;;;25.55;5.55;;;6.40;99.90;;;;;;5125146;28;20050;-49
2023/12/31 09:58:40;;;;;;;26.42;5.78;;;6.40;99.90;;;;;;5124901;28;20031;-49
2023/12/31 10:01:06;;;;;;;36.05;6.30;;;6.30;99.90;;;;;;5124310;28;20050;-49
2023/12/31 10:03:31;;;;;;;29.77;6.65;;;6.40;99.90;;;;;;5106901;28;20118;-49
2023/12/31 10:05:57;;;;;;;36.75;7.60;;;6.40;99.90;;;;;;5125610;28;20031;-49
2023/12/31 10:08:23;;;;;;;43.22;8.20;;;6.40;99.90;;;;;;5106990;28;20359;-49
2023/12/31 10:10:50;;;;;;;37.97;8.27;;;6.50;99.90;;;;;;5107288;28;20330;-49
2023/12/31 10:13:16;;;;;;;36.47;7.20;;;6.50;99.90;;;;;;5108449;28;20028;-49
2023/12/31 10:15:42;;;;;;;43.85;7.97;;;6.50;99.90;;;;;;5092264;28;20028;-49
2023/12/31 10:18:08;;;;;;;58.03;10.45;;;6.50;99.90;;;;;;5109318;28;20031;-49
2023/12/31 10:20:38;;;;;;;44.78;7.78;;;6.50;99.90;;;;;;5109238;28;20035;-49
2023/12/31 10:23:06;;;;;;;87.05;10.75;;;6.60;99.90;;;;;;5109199;28;20035;-49
2023/12/31 10:25:32;;;;;;;69.57;11.25;;;6.60;99.90;;;;;;5127465;28;20111;-49
2023/12/31 10:27:57;;;;;;;55.20;10.05;;;6.60;99.90;;;;;;5109057;28;20019;-49
2023/12/31 10:30:23;;;;;;;104.25;12.68;;;6.60;99.90;;;;;;5127195;28;20035;-49
2023/12/31 10:32:49;;;;;;;100.13;11.60;;;6.60;99.90;;;;;;5108752;28;20028;-49
2023/12/31 10:35:19;;;;;;;71.97;12.27;;;6.70;99.90;;;;;;5125812;28;20031;-49
2023/12/31 10:37:45;;;;;;;76.65;10.02;;;6.70;99.90;;;;;;5108814;28;20548;-48
2023/12/31 10:40:18;;;;;;;70.40;12.25;;;6.70;99.90;;;;;;5126972;28;20028;-49
2023/12/31 10:42:55;;;;;;;87.15;12.93;;;6.70;99.90;;;;;;5117055;28;20040;-49
2023/12/31 10:45:21;;;;;;;113.97;14.40;;;6.80;99.90;;;;;;5086171;28;20024;-49
2023/12/31 10:47:51;;;;;;;104.80;14.48;;;6.80;99.90;;;;;;5070690;28;20448;-48
2023/12/31 10:50:23;;;;;;;120.57;13.02;;;6.80;99.90;;;;;;5105499;28;20077;-49
2023/12/31 10:53:01;;;;;;;92.22;11.52;;;6.90;99.90;;;;;;5069722;28;20048;-49
2023/12/31 10:55:26;;;;;;;132.95;15.13;;;6.90;99.90;;;;;;5086487;28;20029;-49
2023/12/31 10:57:52;;;;;;;163.68;17.58;;;6.90;99.90;;;;;;5088400;28;20035;-49
2023/12/31 11:00:19;;;;;;;90.28;13.55;;;7.00;99.90;;;;;;5101705;28;20461;-49
2023/12/31 11:02:45;;;;;;;152.15;21.00;;;7.00;99.90;;;;;;5119237;27;20035;-49
2023/12/31 11:05:10;;;;;;;158.40;16.98;;;7.00;99.90;;;;;;5121287;28;20047;-49
2023/12/31 11:07:36;;;;;;;100.72;14.23;;;7.10;99.90;;;;;;5115524;28;20054;-49
2023/12/31 11:10:03;;;;;;;155.60;18.15;;;7.10;99.90;;;;;;5086593;28;20044;-49
2023/12/31 11:12:29;;;;;;;95.03;14.73;;;7.10;99.90;;;;;;5090555;28;20028;-50
2023/12/31 11:15:10;;;;;;;149.48;19.17;;;7.10;99.90;;;;;;5086881;28;20036;-49
2023/12/31 11:18:05;;;;;;;105.82;14.25;;;7.20;99.90;;;;;;5071941;28;20069;-49
2023/12/31 11:20:56;;;;;;;135.35;19.85;;;7.20;99.90;;;;;;5090161;28;20096;-50
2023/12/31 11:23:43;;;;;;;117.82;18.33;;;7.20;99.90;;;;;;5104998;28;20093;-49
2023/12/31 11:26:08;;;;;;;154.38;19.95;;;7.30;99.90;;;;;;5105381;28;20084;-49
2023/12/31 11:28:37;;;;;;;148.15;19.30;;;7.30;99.90;;;;;;5095178;28;20035;-49
2023/12/31 11:31:05;;;;;;;128.95;16.00;;;7.30;99.90;;;;;;5086002;28;20134;-49
2023/12/31 11:33:34;;;;;;;119.00;14.50;;;7.30;99.90;;;;;;5104280;28;20028;-49
2023/12/31 11:36:07;;;;;;;117.57;14.73;;;7.40;99.90;;;;;;5070720;28;20036;-49
2023/12/31 11:39:04;;;;;;;119.20;15.88;;;7.40;99.90;;;;;;5087495;28;20028;-49
2023/12/31 11:41:34;;;;;;;107.38;13.93;;;7.40;99.90;;;;;;5105421;28;20028;-49
2023/12/31 11:44:00;;;;;;;97.32;15.27;;;7.50;99.90;;;;;;5121467;28;20049;-50
2023/12/31 11:46:34;;;;;;;139.52;16.58;;;7.50;99.90;;;;;;5110297;28;20036;-49
2023/12/31 11:49:00;;;;;;;136.35;17.50;;;7.50;99.90;;;;;;5104805;28;20028;-49
2023/12/31 11:51:31;;;;;;;146.45;17.08;;;7.50;99.90;;;;;;5087177;28;20024;-49
2023/12/31 11:53:59;;;;;;;112.13;16.02;;;7.50;99.90;;;;;;5070878;28;20024;-50
2023/12/31 11:56:26;;;;;;;124.88;16.70;;;7.60;99.90;;;;;;5105232;28;20028;-50
2023/12/31 11:58:52;;;;;;;164.73;18.67;;;7.60;99.90;;;;;;5105606;28;20034;-49
2023/12/31 12:01:17;;;;;;;116.65;15.48;;;7.60;99.90;;;;;;5085483;28;20043;-49
2023/12/31 12:03:45;;;;;;;122.18;16.15;;;7.60;99.90;;;;;;5119064;28;20032;-49
2023/12/31 12:06:11;;;;;;;159.77;18.05;;;7.60;99.90;;;;;;5123704;28;20028;-49
2023/12/31 12:08:38;;;;;;;129.75;15.07;;;7.60;99.90;;;;;;5096463;28;20060;-49
2023/12/31 12:11:04;;;;;;;117.00;14.50;;;7.70;99.90;;;;;;5101801;28;20044;-49
2023/12/31 12:13:29;;;;;;;257.27;24.52;;;7.70;99.90;;;;;;5105876;28;20471;-49
2023/12/31 12:15:57;;;;;;;119.25;13.10;;;7.70;99.90;;;;;;5092140;28;20384;-49
2023/12/31 12:18:23;;;;;;;98.60;11.63;;;7.80;99.90;;;;;;5116956;28;20031;-49
2023/12/31 12:20:48;;;;;;;100.35;10.98;;;7.80;99.90;;;;;;5094237;28;20057;-49
2023/12/31 12:23:18;;;;;;;107.38;13.07;;;7.80;99.90;;;;;;5084625;28;20083;-49
2023/12/31 12:25:44;;;;;;;114.50;11.07;;;7.80;99.90;;;;;;5107157;28;20522;-49
2023/12/31 12:28:10;;;;;;;95.40;9.75;;;7.80;99.90;;;;;;5091953;28;20057;-49
2023/12/31 12:30:38;;;;;;;90.40;8.55;;;7.70;99.90;;;;;;5112202;28;20483;-49
2023/12/31 12:33:04;;;;;;;95.47;10.38;;;7.70;99.90;;;;;;5090910;28;20238;-49
2023/12/31 12:35:31;;;;;;;133.73;13.55;;;7.70;99.90;;;;;;5090213;28;20064;-49
2023/12/31 12:37:57;;;;;;;66.22;8.73;;;7.70;99.90;;;;;;5121997;28;20034;-49
2023/12/31 12:40:22;;;;;;;105.53;11.93;;;7.80;99.90;;;;;;5115505;28;20055;-49
2023/12/31 12:42:48;;;;;;;74.97;9.23;;;7.80;99.90;;;;;;5119224;28;20028;-49
2023/12/31 12:45:15;;;;;;;69.47;8.02;;;7.80;99.90;;;;;;5111391;28;20031;-49